sensor_id;sensor_type;location;lat;lon;timestamp;P1;durP1;ratioP1;P2;durP2;ratioP2
3700;SDS011;1866;48.374;10.766;2022-12-18T00:00:53;114.93;;;28.98;;
3700;SDS011;1866;48.374;10.766;2022-12-18T00:03:27;121.60;;;30.17;;
3700;SDS011;1866;48.374;10.766;2022-12-18T00:08:43;128.23;;;29.58;;
3700;SDS011;1866;48.374;10.766;2022-12-18T00:11:22;117.78;;;28.73;;
3700;SDS011;1866;48.374;10.766;2022-12-18T00:16:43;114.95;;;27.08;;
3700;SDS011;1866;48.374;10.766;2022-12-18T00:19:24;118.32;;;28.65;;
3700;SDS011;1866;48.374;10.766;2022-12-18T00:21:51;120.75;;;27.45;;
3700;SDS011;1866;48.374;10.766;2022-12-18T00:24:19;117.22;;;27.42;;
3700;SDS011;1866;48.374;10.766;2022-12-18T00:26:46;119.28;;;27.00;;
3700;SDS011;1866;48.374;10.766;2022-12-18T00:29:20;125.85;;;27.40;;
3700;SDS011;1866;48.374;10.766;2022-12-18T00:31:50;118.72;;;27.25;;
3700;SDS011;1866;48.374;10.766;2022-12-18T00:34:29;113.70;;;25.80;;
3700;SDS011;1866;48.374;10.766;2022-12-18T00:39:59;112.65;;;26.10;;
3700;SDS011;1866;48.374;10.766;2022-12-18T00:42:26;116.95;;;25.98;;
3700;SDS011;1866;48.374;10.766;2022-12-18T00:45:29;112.35;;;25.15;;
3700;SDS011;1866;48.374;10.766;2022-12-18T00:48:15;112.95;;;25.85;;
3700;SDS011;1866;48.374;10.766;2022-12-18T00:53:14;113.32;;;23.15;;
3700;SDS011;1866;48.374;10.766;2022-12-18T00:55:55;110.38;;;24.83;;
3700;SDS011;1866;48.374;10.766;2022-12-18T00:58:27;109.85;;;24.20;;
3700;SDS011;1866;48.374;10.766;2022-12-18T01:03:35;112.45;;;24.08;;
3700;SDS011;1866;48.374;10.766;2022-12-18T01:06:05;117.60;;;25.58;;
3700;SDS011;1866;48.374;10.766;2022-12-18T01:08:35;115.22;;;24.15;;
3700;SDS011;1866;48.374;10.766;2022-12-18T01:11:10;112.93;;;25.65;;
3700;SDS011;1866;48.374;10.766;2022-12-18T01:13:42;116.85;;;25.15;;
3700;SDS011;1866;48.374;10.766;2022-12-18T01:16:12;117.32;;;23.52;;
3700;SDS011;1866;48.374;10.766;2022-12-18T01:21:27;109.07;;;24.15;;
3700;SDS011;1866;48.374;10.766;2022-12-18T01:23:56;111.60;;;23.95;;
3700;SDS011;1866;48.374;10.766;2022-12-18T01:26:28;119.85;;;24.17;;
3700;SDS011;1866;48.374;10.766;2022-12-18T01:28:55;116.43;;;25.52;;
3700;SDS011;1866;48.374;10.766;2022-12-18T01:31:24;104.65;;;22.40;;
3700;SDS011;1866;48.374;10.766;2022-12-18T01:36:47;108.60;;;22.05;;
3700;SDS011;1866;48.374;10.766;2022-12-18T01:39:24;108.32;;;22.50;;
3700;SDS011;1866;48.374;10.766;2022-12-18T01:42:10;111.10;;;22.67;;
3700;SDS011;1866;48.374;10.766;2022-12-18T01:44:57;110.55;;;23.55;;
3700;SDS011;1866;48.374;10.766;2022-12-18T01:47:28;115.35;;;25.17;;
3700;SDS011;1866;48.374;10.766;2022-12-18T01:50:04;108.82;;;23.27;;
3700;SDS011;1866;48.374;10.766;2022-12-18T01:52:43;111.13;;;23.55;;
3700;SDS011;1866;48.374;10.766;2022-12-18T01:55:25;112.40;;;23.80;;
3700;SDS011;1866;48.374;10.766;2022-12-18T02:00:48;116.82;;;23.77;;
3700;SDS011;1866;48.374;10.766;2022-12-18T02:06:03;115.22;;;24.95;;
3700;SDS011;1866;48.374;10.766;2022-12-18T02:08:37;111.78;;;23.10;;
3700;SDS011;1866;48.374;10.766;2022-12-18T02:14:19;112.68;;;23.15;;
3700;SDS011;1866;48.374;10.766;2022-12-18T02:17:04;114.38;;;24.08;;
3700;SDS011;1866;48.374;10.766;2022-12-18T02:22:26;115.88;;;23.92;;
3700;SDS011;1866;48.374;10.766;2022-12-18T02:28:09;116.00;;;25.55;;
3700;SDS011;1866;48.374;10.766;2022-12-18T02:33:13;121.22;;;26.83;;
3700;SDS011;1866;48.374;10.766;2022-12-18T02:35:42;113.95;;;25.85;;
3700;SDS011;1866;48.374;10.766;2022-12-18T02:38:10;120.43;;;26.45;;
3700;SDS011;1866;48.374;10.766;2022-12-18T02:40:38;121.60;;;27.05;;
3700;SDS011;1866;48.374;10.766;2022-12-18T02:43:09;126.90;;;26.25;;
3700;SDS011;1866;48.374;10.766;2022-12-18T02:45:45;121.00;;;25.58;;
3700;SDS011;1866;48.374;10.766;2022-12-18T02:48:15;118.07;;;27.00;;
3700;SDS011;1866;48.374;10.766;2022-12-18T02:50:51;115.63;;;25.30;;
3700;SDS011;1866;48.374;10.766;2022-12-18T02:53:26;116.88;;;25.95;;
3700;SDS011;1866;48.374;10.766;2022-12-18T02:56:05;123.78;;;26.58;;
3700;SDS011;1866;48.374;10.766;2022-12-18T03:04:29;116.28;;;26.10;;
3700;SDS011;1866;48.374;10.766;2022-12-18T03:07:18;118.35;;;27.27;;
3700;SDS011;1866;48.374;10.766;2022-12-18T03:09:55;120.07;;;25.17;;
3700;SDS011;1866;48.374;10.766;2022-12-18T03:12:35;116.13;;;27.17;;
3700;SDS011;1866;48.374;10.766;2022-12-18T03:15:08;110.68;;;25.10;;
3700;SDS011;1866;48.374;10.766;2022-12-18T03:17:38;118.47;;;26.77;;
3700;SDS011;1866;48.374;10.766;2022-12-18T03:23:29;118.43;;;26.48;;
3700;SDS011;1866;48.374;10.766;2022-12-18T03:26:06;119.32;;;25.95;;
3700;SDS011;1866;48.374;10.766;2022-12-18T03:28:46;114.20;;;25.85;;
3700;SDS011;1866;48.374;10.766;2022-12-18T03:31:18;114.07;;;25.85;;
3700;SDS011;1866;48.374;10.766;2022-12-18T03:33:55;112.60;;;26.88;;
3700;SDS011;1866;48.374;10.766;2022-12-18T03:39:26;112.25;;;25.35;;
3700;SDS011;1866;48.374;10.766;2022-12-18T03:42:13;121.28;;;27.15;;
3700;SDS011;1866;48.374;10.766;2022-12-18T03:44:49;115.60;;;24.33;;
3700;SDS011;1866;48.374;10.766;2022-12-18T03:47:22;113.68;;;24.73;;
3700;SDS011;1866;48.374;10.766;2022-12-18T03:49:55;117.93;;;25.15;;
3700;SDS011;1866;48.374;10.766;2022-12-18T03:52:40;114.20;;;23.67;;
3700;SDS011;1866;48.374;10.766;2022-12-18T03:55:12;109.95;;;22.58;;
3700;SDS011;1866;48.374;10.766;2022-12-18T04:00:29;109.93;;;23.27;;
3700;SDS011;1866;48.374;10.766;2022-12-18T04:03:06;112.72;;;24.15;;
3700;SDS011;1866;48.374;10.766;2022-12-18T04:05:43;113.88;;;23.20;;
3700;SDS011;1866;48.374;10.766;2022-12-18T04:13:45;116.75;;;25.05;;
3700;SDS011;1866;48.374;10.766;2022-12-18T04:16:15;105.60;;;22.35;;
3700;SDS011;1866;48.374;10.766;2022-12-18T04:18:44;111.75;;;23.25;;
3700;SDS011;1866;48.374;10.766;2022-12-18T04:21:11;111.82;;;23.33;;
3700;SDS011;1866;48.374;10.766;2022-12-18T04:23:38;116.20;;;24.67;;
3700;SDS011;1866;48.374;10.766;2022-12-18T04:26:06;111.47;;;23.00;;
3700;SDS011;1866;48.374;10.766;2022-12-18T04:31:27;108.60;;;22.77;;
3700;SDS011;1866;48.374;10.766;2022-12-18T04:33:55;113.28;;;24.20;;
3700;SDS011;1866;48.374;10.766;2022-12-18T04:38:56;105.85;;;22.00;;
3700;SDS011;1866;48.374;10.766;2022-12-18T04:41:24;113.47;;;24.23;;
3700;SDS011;1866;48.374;10.766;2022-12-18T04:43:52;110.57;;;23.65;;
3700;SDS011;1866;48.374;10.766;2022-12-18T04:46:19;110.13;;;22.33;;
3700;SDS011;1866;48.374;10.766;2022-12-18T04:48:46;105.00;;;21.98;;
3700;SDS011;1866;48.374;10.766;2022-12-18T04:51:15;109.18;;;22.10;;
3700;SDS011;1866;48.374;10.766;2022-12-18T04:53:42;109.15;;;23.88;;
3700;SDS011;1866;48.374;10.766;2022-12-18T04:56:16;113.93;;;22.30;;
3700;SDS011;1866;48.374;10.766;2022-12-18T05:01:29;113.63;;;22.42;;
3700;SDS011;1866;48.374;10.766;2022-12-18T05:06:48;111.35;;;23.30;;
3700;SDS011;1866;48.374;10.766;2022-12-18T05:09:28;117.30;;;24.17;;
3700;SDS011;1866;48.374;10.766;2022-12-18T05:11:58;113.18;;;23.92;;
3700;SDS011;1866;48.374;10.766;2022-12-18T05:17:43;113.90;;;23.23;;
3700;SDS011;1866;48.374;10.766;2022-12-18T05:20:11;106.55;;;22.70;;
3700;SDS011;1866;48.374;10.766;2022-12-18T05:22:39;114.18;;;23.70;;
3700;SDS011;1866;48.374;10.766;2022-12-18T05:28:01;110.45;;;22.73;;
3700;SDS011;1866;48.374;10.766;2022-12-18T05:30:34;109.15;;;23.95;;
3700;SDS011;1866;48.374;10.766;2022-12-18T05:35:52;108.57;;;22.83;;
3700;SDS011;1866;48.374;10.766;2022-12-18T05:38:21;114.38;;;24.10;;
3700;SDS011;1866;48.374;10.766;2022-12-18T05:40:51;117.10;;;25.52;;
3700;SDS011;1866;48.374;10.766;2022-12-18T05:43:25;110.88;;;23.40;;
3700;SDS011;1866;48.374;10.766;2022-12-18T05:45:53;111.72;;;23.70;;
3700;SDS011;1866;48.374;10.766;2022-12-18T05:48:21;117.32;;;22.92;;
3700;SDS011;1866;48.374;10.766;2022-12-18T05:51:02;109.78;;;23.50;;
3700;SDS011;1866;48.374;10.766;2022-12-18T05:53:32;115.90;;;24.75;;
3700;SDS011;1866;48.374;10.766;2022-12-18T05:56:00;114.53;;;26.65;;
3700;SDS011;1866;48.374;10.766;2022-12-18T05:58:27;113.05;;;23.85;;
3700;SDS011;1866;48.374;10.766;2022-12-18T06:00:55;123.63;;;27.30;;
3700;SDS011;1866;48.374;10.766;2022-12-18T06:03:22;124.72;;;25.67;;
3700;SDS011;1866;48.374;10.766;2022-12-18T06:05:52;116.85;;;24.77;;
3700;SDS011;1866;48.374;10.766;2022-12-18T06:08:19;115.30;;;25.13;;
3700;SDS011;1866;48.374;10.766;2022-12-18T06:10:51;112.05;;;24.13;;
3700;SDS011;1866;48.374;10.766;2022-12-18T06:13:19;119.22;;;24.80;;
3700;SDS011;1866;48.374;10.766;2022-12-18T06:15:46;111.10;;;24.05;;
3700;SDS011;1866;48.374;10.766;2022-12-18T06:18:13;111.45;;;25.15;;
3700;SDS011;1866;48.374;10.766;2022-12-18T06:23:40;123.03;;;26.90;;
3700;SDS011;1866;48.374;10.766;2022-12-18T06:26:12;117.13;;;24.15;;
3700;SDS011;1866;48.374;10.766;2022-12-18T06:28:46;114.47;;;25.10;;
3700;SDS011;1866;48.374;10.766;2022-12-18T06:31:13;108.75;;;23.50;;
3700;SDS011;1866;48.374;10.766;2022-12-18T06:33:40;116.07;;;25.50;;
3700;SDS011;1866;48.374;10.766;2022-12-18T06:36:08;117.25;;;24.75;;
3700;SDS011;1866;48.374;10.766;2022-12-18T06:38:37;116.40;;;24.38;;
3700;SDS011;1866;48.374;10.766;2022-12-18T06:41:06;116.43;;;24.70;;
3700;SDS011;1866;48.374;10.766;2022-12-18T06:43:43;118.72;;;25.65;;
3700;SDS011;1866;48.374;10.766;2022-12-18T06:46:15;118.20;;;25.95;;
3700;SDS011;1866;48.374;10.766;2022-12-18T06:48:42;117.40;;;24.25;;
3700;SDS011;1866;48.374;10.766;2022-12-18T06:51:19;109.85;;;22.73;;
3700;SDS011;1866;48.374;10.766;2022-12-18T06:53:47;113.60;;;24.08;;
3700;SDS011;1866;48.374;10.766;2022-12-18T06:56:14;112.95;;;24.40;;
3700;SDS011;1866;48.374;10.766;2022-12-18T06:58:44;106.97;;;22.75;;
3700;SDS011;1866;48.374;10.766;2022-12-18T07:01:26;111.22;;;22.92;;
3700;SDS011;1866;48.374;10.766;2022-12-18T07:03:56;115.65;;;25.20;;
3700;SDS011;1866;48.374;10.766;2022-12-18T07:06:34;115.55;;;25.17;;
3700;SDS011;1866;48.374;10.766;2022-12-18T07:09:01;115.50;;;23.98;;
3700;SDS011;1866;48.374;10.766;2022-12-18T07:11:28;110.22;;;23.25;;
3700;SDS011;1866;48.374;10.766;2022-12-18T07:13:59;112.32;;;24.23;;
3700;SDS011;1866;48.374;10.766;2022-12-18T07:16:29;110.50;;;24.60;;
3700;SDS011;1866;48.374;10.766;2022-12-18T07:18:56;110.43;;;23.33;;
3700;SDS011;1866;48.374;10.766;2022-12-18T07:21:23;120.13;;;24.98;;
3700;SDS011;1866;48.374;10.766;2022-12-18T07:23:59;123.50;;;23.35;;
3700;SDS011;1866;48.374;10.766;2022-12-18T07:26:38;111.88;;;23.65;;
3700;SDS011;1866;48.374;10.766;2022-12-18T07:29:21;107.70;;;23.00;;
3700;SDS011;1866;48.374;10.766;2022-12-18T07:31:49;117.70;;;25.20;;
3700;SDS011;1866;48.374;10.766;2022-12-18T07:34:25;112.57;;;24.45;;
3700;SDS011;1866;48.374;10.766;2022-12-18T07:36:52;110.40;;;23.85;;
3700;SDS011;1866;48.374;10.766;2022-12-18T07:39:20;114.43;;;24.65;;
3700;SDS011;1866;48.374;10.766;2022-12-18T07:42:00;114.45;;;23.67;;
3700;SDS011;1866;48.374;10.766;2022-12-18T07:47:34;108.70;;;23.05;;
3700;SDS011;1866;48.374;10.766;2022-12-18T07:50:11;119.63;;;25.38;;
3700;SDS011;1866;48.374;10.766;2022-12-18T07:52:49;118.72;;;25.52;;
3700;SDS011;1866;48.374;10.766;2022-12-18T07:55:17;112.93;;;22.70;;
3700;SDS011;1866;48.374;10.766;2022-12-18T08:00:34;114.50;;;24.80;;
3700;SDS011;1866;48.374;10.766;2022-12-18T08:05:53;110.65;;;22.88;;
3700;SDS011;1866;48.374;10.766;2022-12-18T08:08:25;115.03;;;23.67;;
3700;SDS011;1866;48.374;10.766;2022-12-18T08:10:55;106.57;;;22.35;;
3700;SDS011;1866;48.374;10.766;2022-12-18T08:16:26;119.75;;;24.40;;
3700;SDS011;1866;48.374;10.766;2022-12-18T08:18:54;111.65;;;23.23;;
3700;SDS011;1866;48.374;10.766;2022-12-18T08:24:10;108.32;;;23.13;;
3700;SDS011;1866;48.374;10.766;2022-12-18T08:26:43;116.45;;;23.45;;
3700;SDS011;1866;48.374;10.766;2022-12-18T08:40:28;113.38;;;23.67;;
3700;SDS011;1866;48.374;10.766;2022-12-18T08:46:11;114.30;;;23.98;;
3700;SDS011;1866;48.374;10.766;2022-12-18T08:49:04;112.72;;;23.27;;
3700;SDS011;1866;48.374;10.766;2022-12-18T08:51:32;112.93;;;23.23;;
3700;SDS011;1866;48.374;10.766;2022-12-18T08:54:01;112.50;;;22.13;;
3700;SDS011;1866;48.374;10.766;2022-12-18T08:56:29;110.07;;;22.52;;
3700;SDS011;1866;48.374;10.766;2022-12-18T08:58:56;119.00;;;23.00;;
3700;SDS011;1866;48.374;10.766;2022-12-18T09:01:23;112.95;;;21.77;;
3700;SDS011;1866;48.374;10.766;2022-12-18T09:03:57;109.75;;;21.85;;
3700;SDS011;1866;48.374;10.766;2022-12-18T09:06:27;107.40;;;21.90;;
3700;SDS011;1866;48.374;10.766;2022-12-18T09:11:54;117.40;;;22.52;;
3700;SDS011;1866;48.374;10.766;2022-12-18T09:14:33;117.55;;;21.52;;
3700;SDS011;1866;48.374;10.766;2022-12-18T09:19:48;114.78;;;21.85;;
3700;SDS011;1866;48.374;10.766;2022-12-18T09:22:17;118.50;;;23.08;;
3700;SDS011;1866;48.374;10.766;2022-12-18T09:24:57;114.13;;;23.65;;
3700;SDS011;1866;48.374;10.766;2022-12-18T09:30:22;109.80;;;21.13;;
3700;SDS011;1866;48.374;10.766;2022-12-18T09:33:01;111.00;;;22.08;;
3700;SDS011;1866;48.374;10.766;2022-12-18T09:35:29;127.43;;;21.90;;
3700;SDS011;1866;48.374;10.766;2022-12-18T09:38:13;111.93;;;20.80;;
3700;SDS011;1866;48.374;10.766;2022-12-18T09:43:26;106.38;;;20.92;;
3700;SDS011;1866;48.374;10.766;2022-12-18T09:48:54;113.25;;;20.98;;
3700;SDS011;1866;48.374;10.766;2022-12-18T09:51:37;115.53;;;22.08;;
3700;SDS011;1866;48.374;10.766;2022-12-18T09:54:31;116.65;;;21.50;;
3700;SDS011;1866;48.374;10.766;2022-12-18T09:57:03;116.22;;;21.48;;
3700;SDS011;1866;48.374;10.766;2022-12-18T09:59:34;113.45;;;24.65;;
3700;SDS011;1866;48.374;10.766;2022-12-18T10:05:04;109.65;;;20.48;;
3700;SDS011;1866;48.374;10.766;2022-12-18T10:13:23;111.25;;;19.60;;
3700;SDS011;1866;48.374;10.766;2022-12-18T10:16:08;111.35;;;18.95;;
3700;SDS011;1866;48.374;10.766;2022-12-18T10:18:51;110.00;;;19.50;;
3700;SDS011;1866;48.374;10.766;2022-12-18T10:21:38;111.07;;;18.27;;
3700;SDS011;1866;48.374;10.766;2022-12-18T10:24:12;107.43;;;17.80;;
3700;SDS011;1866;48.374;10.766;2022-12-18T10:29:54;106.30;;;18.10;;
3700;SDS011;1866;48.374;10.766;2022-12-18T10:32:31;108.60;;;18.63;;
3700;SDS011;1866;48.374;10.766;2022-12-18T10:38:06;108.78;;;18.75;;
3700;SDS011;1866;48.374;10.766;2022-12-18T10:40:56;110.97;;;19.45;;
3700;SDS011;1866;48.374;10.766;2022-12-18T10:43:36;115.57;;;18.73;;
3700;SDS011;1866;48.374;10.766;2022-12-18T10:46:19;111.30;;;19.20;;
3700;SDS011;1866;48.374;10.766;2022-12-18T10:48:56;107.40;;;19.48;;
3700;SDS011;1866;48.374;10.766;2022-12-18T10:51:25;114.57;;;19.48;;
3700;SDS011;1866;48.374;10.766;2022-12-18T10:54:02;117.60;;;19.80;;
3700;SDS011;1866;48.374;10.766;2022-12-18T10:56:35;109.07;;;19.20;;
3700;SDS011;1866;48.374;10.766;2022-12-18T10:59:07;110.95;;;19.33;;
3700;SDS011;1866;48.374;10.766;2022-12-18T11:04:52;110.78;;;18.20;;
3700;SDS011;1866;48.374;10.766;2022-12-18T11:10:19;114.75;;;18.40;;
3700;SDS011;1866;48.374;10.766;2022-12-18T11:13:08;113.97;;;18.05;;
3700;SDS011;1866;48.374;10.766;2022-12-18T11:15:55;114.53;;;19.15;;
3700;SDS011;1866;48.374;10.766;2022-12-18T11:18:28;107.85;;;17.55;;
3700;SDS011;1866;48.374;10.766;2022-12-18T11:20:59;113.80;;;19.30;;
3700;SDS011;1866;48.374;10.766;2022-12-18T11:23:33;112.03;;;19.30;;
3700;SDS011;1866;48.374;10.766;2022-12-18T11:26:01;108.70;;;19.00;;
3700;SDS011;1866;48.374;10.766;2022-12-18T11:28:35;109.90;;;18.50;;
3700;SDS011;1866;48.374;10.766;2022-12-18T11:31:21;105.45;;;17.83;;
3700;SDS011;1866;48.374;10.766;2022-12-18T11:36:47;109.13;;;18.77;;
3700;SDS011;1866;48.374;10.766;2022-12-18T11:39:28;112.65;;;20.65;;
3700;SDS011;1866;48.374;10.766;2022-12-18T11:42:09;114.43;;;19.40;;
3700;SDS011;1866;48.374;10.766;2022-12-18T11:44:51;113.63;;;20.67;;
3700;SDS011;1866;48.374;10.766;2022-12-18T11:50:16;113.38;;;19.55;;
3700;SDS011;1866;48.374;10.766;2022-12-18T11:52:48;107.22;;;18.60;;
3700;SDS011;1866;48.374;10.766;2022-12-18T11:55:19;116.68;;;20.33;;
3700;SDS011;1866;48.374;10.766;2022-12-18T11:58:07;117.05;;;17.83;;
3700;SDS011;1866;48.374;10.766;2022-12-18T12:00:59;107.88;;;16.95;;
3700;SDS011;1866;48.374;10.766;2022-12-18T12:09:46;111.88;;;18.33;;
3700;SDS011;1866;48.374;10.766;2022-12-18T12:12:33;105.18;;;17.05;;
3700;SDS011;1866;48.374;10.766;2022-12-18T12:15:32;113.40;;;17.02;;
3700;SDS011;1866;48.374;10.766;2022-12-18T12:21:07;108.32;;;17.15;;
3700;SDS011;1866;48.374;10.766;2022-12-18T12:23:45;112.22;;;18.70;;
3700;SDS011;1866;48.374;10.766;2022-12-18T12:26:21;121.38;;;19.52;;
3700;SDS011;1866;48.374;10.766;2022-12-18T12:29:01;110.65;;;16.90;;
3700;SDS011;1866;48.374;10.766;2022-12-18T12:31:47;115.28;;;18.15;;
3700;SDS011;1866;48.374;10.766;2022-12-18T12:34:33;115.32;;;19.50;;
3700;SDS011;1866;48.374;10.766;2022-12-18T12:37:10;117.78;;;17.52;;
3700;SDS011;1866;48.374;10.766;2022-12-18T12:39:47;111.47;;;15.82;;
3700;SDS011;1866;48.374;10.766;2022-12-18T12:42:16;110.72;;;15.95;;
3700;SDS011;1866;48.374;10.766;2022-12-18T12:45:13;119.10;;;18.80;;
3700;SDS011;1866;48.374;10.766;2022-12-18T12:47:44;111.28;;;17.13;;
3700;SDS011;1866;48.374;10.766;2022-12-18T12:50:15;113.47;;;17.00;;
3700;SDS011;1866;48.374;10.766;2022-12-18T12:52:47;106.90;;;16.75;;
3700;SDS011;1866;48.374;10.766;2022-12-18T12:55:27;118.68;;;17.45;;
3700;SDS011;1866;48.374;10.766;2022-12-18T13:04:06;112.88;;;17.52;;
3700;SDS011;1866;48.374;10.766;2022-12-18T13:13:18;108.40;;;17.00;;
3700;SDS011;1866;48.374;10.766;2022-12-18T13:15:46;113.68;;;17.25;;
3700;SDS011;1866;48.374;10.766;2022-12-18T13:18:16;109.10;;;17.27;;
3700;SDS011;1866;48.374;10.766;2022-12-18T13:20:45;110.10;;;17.65;;
3700;SDS011;1866;48.374;10.766;2022-12-18T13:23:34;110.43;;;16.55;;
3700;SDS011;1866;48.374;10.766;2022-12-18T13:29:02;107.03;;;16.63;;
3700;SDS011;1866;48.374;10.766;2022-12-18T13:34:26;115.65;;;18.25;;
3700;SDS011;1866;48.374;10.766;2022-12-18T13:36:56;114.22;;;18.55;;
3700;SDS011;1866;48.374;10.766;2022-12-18T13:39:45;112.07;;;17.83;;
3700;SDS011;1866;48.374;10.766;2022-12-18T13:48:16;112.03;;;17.45;;
3700;SDS011;1866;48.374;10.766;2022-12-18T13:50:49;111.15;;;16.92;;
3700;SDS011;1866;48.374;10.766;2022-12-18T13:53:21;110.18;;;17.05;;
3700;SDS011;1866;48.374;10.766;2022-12-18T13:55:52;104.60;;;17.55;;
3700;SDS011;1866;48.374;10.766;2022-12-18T13:58:19;111.70;;;16.30;;
3700;SDS011;1866;48.374;10.766;2022-12-18T14:00:46;108.07;;;17.25;;
3700;SDS011;1866;48.374;10.766;2022-12-18T14:03:17;120.65;;;18.33;;
3700;SDS011;1866;48.374;10.766;2022-12-18T14:05:46;111.38;;;18.60;;
3700;SDS011;1866;48.374;10.766;2022-12-18T14:08:20;108.40;;;19.85;;
3700;SDS011;1866;48.374;10.766;2022-12-18T14:10:48;111.43;;;18.38;;
3700;SDS011;1866;48.374;10.766;2022-12-18T14:13:21;119.32;;;18.58;;
3700;SDS011;1866;48.374;10.766;2022-12-18T14:15:50;116.63;;;19.70;;
3700;SDS011;1866;48.374;10.766;2022-12-18T14:18:19;107.13;;;17.73;;
3700;SDS011;1866;48.374;10.766;2022-12-18T14:20:49;112.97;;;18.60;;
3700;SDS011;1866;48.374;10.766;2022-12-18T14:23:28;113.15;;;19.80;;
3700;SDS011;1866;48.374;10.766;2022-12-18T14:25:56;111.35;;;18.38;;
3700;SDS011;1866;48.374;10.766;2022-12-18T14:28:26;113.72;;;17.75;;
3700;SDS011;1866;48.374;10.766;2022-12-18T14:30:54;110.47;;;17.70;;
3700;SDS011;1866;48.374;10.766;2022-12-18T14:33:21;108.85;;;18.35;;
3700;SDS011;1866;48.374;10.766;2022-12-18T14:35:54;106.28;;;17.58;;
3700;SDS011;1866;48.374;10.766;2022-12-18T14:38:24;110.38;;;17.25;;
3700;SDS011;1866;48.374;10.766;2022-12-18T14:40:57;106.53;;;17.15;;
3700;SDS011;1866;48.374;10.766;2022-12-18T14:43:26;111.60;;;18.25;;
3700;SDS011;1866;48.374;10.766;2022-12-18T14:45:55;109.90;;;18.58;;
3700;SDS011;1866;48.374;10.766;2022-12-18T14:48:25;114.05;;;18.50;;
3700;SDS011;1866;48.374;10.766;2022-12-18T14:51:02;109.95;;;19.15;;
3700;SDS011;1866;48.374;10.766;2022-12-18T14:53:32;107.75;;;18.13;;
3700;SDS011;1866;48.374;10.766;2022-12-18T14:56:02;109.57;;;19.33;;
3700;SDS011;1866;48.374;10.766;2022-12-18T14:58:38;107.30;;;18.08;;
3700;SDS011;1866;48.374;10.766;2022-12-18T15:01:05;108.90;;;18.60;;
3700;SDS011;1866;48.374;10.766;2022-12-18T15:03:33;109.60;;;19.50;;
3700;SDS011;1866;48.374;10.766;2022-12-18T15:06:14;109.22;;;19.60;;
3700;SDS011;1866;48.374;10.766;2022-12-18T15:08:42;106.70;;;17.98;;
3700;SDS011;1866;48.374;10.766;2022-12-18T15:11:23;116.70;;;20.38;;
3700;SDS011;1866;48.374;10.766;2022-12-18T15:13:54;109.38;;;19.30;;
3700;SDS011;1866;48.374;10.766;2022-12-18T15:16:20;107.95;;;17.90;;
3700;SDS011;1866;48.374;10.766;2022-12-18T15:18:47;107.40;;;17.25;;
3700;SDS011;1866;48.374;10.766;2022-12-18T15:21:16;107.95;;;18.15;;
3700;SDS011;1866;48.374;10.766;2022-12-18T15:23:46;116.10;;;18.25;;
3700;SDS011;1866;48.374;10.766;2022-12-18T15:26:15;110.03;;;17.75;;
3700;SDS011;1866;48.374;10.766;2022-12-18T15:28:44;109.57;;;17.23;;
3700;SDS011;1866;48.374;10.766;2022-12-18T15:31:24;104.93;;;18.30;;
3700;SDS011;1866;48.374;10.766;2022-12-18T15:34:00;115.07;;;19.40;;
3700;SDS011;1866;48.374;10.766;2022-12-18T15:36:38;112.30;;;20.75;;
3700;SDS011;1866;48.374;10.766;2022-12-18T15:39:05;111.60;;;19.77;;
3700;SDS011;1866;48.374;10.766;2022-12-18T15:41:34;112.13;;;20.02;;
3700;SDS011;1866;48.374;10.766;2022-12-18T15:44:02;116.32;;;19.60;;
3700;SDS011;1866;48.374;10.766;2022-12-18T15:46:46;110.32;;;19.20;;
3700;SDS011;1866;48.374;10.766;2022-12-18T15:49:14;110.25;;;19.40;;
3700;SDS011;1866;48.374;10.766;2022-12-18T15:51:42;113.55;;;20.80;;
3700;SDS011;1866;48.374;10.766;2022-12-18T15:54:10;110.90;;;19.35;;
3700;SDS011;1866;48.374;10.766;2022-12-18T15:56:41;107.95;;;20.48;;
3700;SDS011;1866;48.374;10.766;2022-12-18T15:59:25;120.65;;;21.00;;
3700;SDS011;1866;48.374;10.766;2022-12-18T16:01:54;107.63;;;19.90;;
3700;SDS011;1866;48.374;10.766;2022-12-18T16:04:22;108.85;;;20.85;;
3700;SDS011;1866;48.374;10.766;2022-12-18T16:06:50;117.35;;;20.98;;
3700;SDS011;1866;48.374;10.766;2022-12-18T16:09:17;117.95;;;22.20;;
3700;SDS011;1866;48.374;10.766;2022-12-18T16:11:45;113.88;;;19.75;;
3700;SDS011;1866;48.374;10.766;2022-12-18T16:14:15;116.15;;;21.10;;
3700;SDS011;1866;48.374;10.766;2022-12-18T16:16:47;113.93;;;21.45;;
3700;SDS011;1866;48.374;10.766;2022-12-18T16:19:16;116.70;;;20.98;;
3700;SDS011;1866;48.374;10.766;2022-12-18T16:21:43;108.15;;;20.85;;
3700;SDS011;1866;48.374;10.766;2022-12-18T16:24:13;111.75;;;21.70;;
3700;SDS011;1866;48.374;10.766;2022-12-18T16:26:42;106.97;;;19.77;;
3700;SDS011;1866;48.374;10.766;2022-12-18T16:29:09;113.88;;;20.65;;
3700;SDS011;1866;48.374;10.766;2022-12-18T16:31:36;112.78;;;22.30;;
3700;SDS011;1866;48.374;10.766;2022-12-18T16:34:10;113.70;;;21.83;;
3700;SDS011;1866;48.374;10.766;2022-12-18T16:36:39;112.45;;;21.48;;
3700;SDS011;1866;48.374;10.766;2022-12-18T16:39:06;123.60;;;22.40;;
3700;SDS011;1866;48.374;10.766;2022-12-18T16:41:33;120.63;;;22.70;;
3700;SDS011;1866;48.374;10.766;2022-12-18T16:44:00;117.30;;;21.67;;
3700;SDS011;1866;48.374;10.766;2022-12-18T16:46:28;107.93;;;21.52;;
3700;SDS011;1866;48.374;10.766;2022-12-18T16:48:56;113.40;;;22.35;;
3700;SDS011;1866;48.374;10.766;2022-12-18T16:51:23;113.55;;;23.33;;
3700;SDS011;1866;48.374;10.766;2022-12-18T16:53:52;115.75;;;21.75;;
3700;SDS011;1866;48.374;10.766;2022-12-18T16:56:19;113.45;;;20.92;;
3700;SDS011;1866;48.374;10.766;2022-12-18T16:58:49;111.05;;;22.70;;
3700;SDS011;1866;48.374;10.766;2022-12-18T17:01:17;112.72;;;24.35;;
3700;SDS011;1866;48.374;10.766;2022-12-18T17:03:44;108.75;;;22.20;;
3700;SDS011;1866;48.374;10.766;2022-12-18T17:06:17;111.40;;;22.95;;
3700;SDS011;1866;48.374;10.766;2022-12-18T17:08:44;110.25;;;22.45;;
3700;SDS011;1866;48.374;10.766;2022-12-18T17:11:12;112.57;;;23.30;;
3700;SDS011;1866;48.374;10.766;2022-12-18T17:13:39;127.45;;;23.38;;
3700;SDS011;1866;48.374;10.766;2022-12-18T17:16:06;113.40;;;22.77;;
3700;SDS011;1866;48.374;10.766;2022-12-18T17:18:34;109.32;;;21.40;;
3700;SDS011;1866;48.374;10.766;2022-12-18T17:21:02;113.93;;;23.05;;
3700;SDS011;1866;48.374;10.766;2022-12-18T17:23:30;115.20;;;22.42;;
3700;SDS011;1866;48.374;10.766;2022-12-18T17:25:57;110.40;;;22.38;;
3700;SDS011;1866;48.374;10.766;2022-12-18T17:28:26;112.80;;;22.38;;
3700;SDS011;1866;48.374;10.766;2022-12-18T17:30:54;115.00;;;22.38;;
3700;SDS011;1866;48.374;10.766;2022-12-18T17:33:21;112.65;;;21.45;;
3700;SDS011;1866;48.374;10.766;2022-12-18T17:35:49;111.85;;;21.30;;
3700;SDS011;1866;48.374;10.766;2022-12-18T17:38:16;120.45;;;23.13;;
3700;SDS011;1866;48.374;10.766;2022-12-18T17:40:44;116.35;;;23.45;;
3700;SDS011;1866;48.374;10.766;2022-12-18T17:43:11;109.80;;;21.98;;
3700;SDS011;1866;48.374;10.766;2022-12-18T17:45:39;112.55;;;22.48;;
3700;SDS011;1866;48.374;10.766;2022-12-18T17:48:06;113.78;;;23.95;;
3700;SDS011;1866;48.374;10.766;2022-12-18T17:50:35;109.63;;;23.05;;
3700;SDS011;1866;48.374;10.766;2022-12-18T17:53:02;114.70;;;23.85;;
3700;SDS011;1866;48.374;10.766;2022-12-18T17:55:29;112.95;;;23.77;;